METAR Gardermoen

ENGM 162150Z VRB02KT CAVOK M08/M10 Q1010 NOSIG

Webcam Kjeller

Webcam Eggemoen